Time;durP1;ratioP1;P1;durP2;ratioP2;P2;SDS_P1;SDS_P2;PMS_P1;PMS_P2;Temp;Humidity;BMP_temperature;BMP_pressure;BME280_temperature;BME280_humidity;BME280_pressure;Samples;Min_cycle;Max_cycle;Signal;HPM_P1;HPM_P2
2023/03/22 00:01:56;;;;;;;11.98;8.23;;;;;;;;;;5042731;28;20049;-64
2023/03/22 00:04:21;;;;;;;12.00;8.27;;;;;;;;;;5042709;28;20388;-64
2023/03/22 00:06:46;;;;;;;12.18;8.65;;;;;;;;;;5042580;28;20021;-64
2023/03/22 00:09:12;;;;;;;12.82;7.57;;;;;;;;;;5042728;28;20018;-64
2023/03/22 00:11:37;;;;;;;14.05;8.43;;;;;;;;;;5054989;28;20375;-64
2023/03/22 00:14:02;;;;;;;11.50;8.43;;;;;;;;;;5054892;28;20071;-64
2023/03/22 00:16:27;;;;;;;11.75;8.65;;;;;;;;;;5047072;28;20120;-64
2023/03/22 00:18:53;;;;;;;11.80;8.07;;;;;;;;;;5035942;28;20025;-64
2023/03/22 00:21:18;;;;;;;10.68;7.93;;;;;;;;;;5043526;28;20104;-64
2023/03/22 00:23:43;;;;;;;12.80;7.82;;;;;;;;;;5041487;28;20538;-64
2023/03/22 00:26:09;;;;;;;12.30;8.32;;;;;;;;;;5043523;28;20029;-64
2023/03/22 00:28:35;;;;;;;12.88;7.55;;;;;;;;;;5041392;28;20110;-64
2023/03/22 00:31:00;;;;;;;11.45;8.10;;;;;;;;;;5043526;28;20524;-64
2023/03/22 00:33:27;;;;;;;12.48;8.45;;;;;;;;;;5053724;28;20021;-64
2023/03/22 00:35:53;;;;;;;8.65;7.15;;;;;;;;;;5041578;28;20078;-64
2023/03/22 00:38:19;;;;;;;10.75;8.45;;;;;;;;;;5053804;28;20025;-64
2023/03/22 00:40:45;;;;;;;12.95;7.85;;;;;;;;;;5048370;28;20025;-64
2023/03/22 00:43:10;;;;;;;9.68;6.65;;;;;;;;;;5035301;28;20510;-64
2023/03/22 00:45:36;;;;;;;9.43;7.75;;;;;;;;;;5054468;28;20021;-64
2023/03/22 00:48:02;;;;;;;11.13;8.07;;;;;;;;;;5041798;28;20489;-64
2023/03/22 00:50:27;;;;;;;17.13;7.32;;;;;;;;;;5035416;28;20017;-64
2023/03/22 00:52:53;;;;;;;10.05;7.25;;;;;;;;;;5043327;28;20446;-64
2023/03/22 00:55:18;;;;;;;13.93;7.45;;;;;;;;;;5048180;28;20414;-64
2023/03/22 00:57:43;;;;;;;9.32;6.55;;;;;;;;;;5035370;28;20031;-64
2023/03/22 01:00:14;;;;;;;14.07;7.00;;;;;;;;;;5035041;28;20022;-64
2023/03/22 01:02:40;;;;;;;9.57;6.82;;;;;;;;;;5041074;28;20035;-64
2023/03/22 01:05:05;;;;;;;8.68;6.68;;;;;;;;;;5038135;28;20092;-64
2023/03/22 01:07:31;;;;;;;11.27;6.75;;;;;;;;;;5040274;28;20108;-64
2023/03/22 01:09:56;;;;;;;10.85;6.53;;;;;;;;;;5045145;28;20495;-64
2023/03/22 01:12:21;;;;;;;11.73;6.75;;;;;;;;;;5042906;28;20421;-64
2023/03/22 01:14:47;;;;;;;13.13;7.03;;;;;;;;;;5046127;28;20025;-64
2023/03/22 01:17:12;;;;;;;9.73;7.10;;;;;;;;;;5038222;28;20017;-64
2023/03/22 01:19:38;;;;;;;8.82;6.20;;;;;;;;;;5043139;28;20395;-64
2023/03/22 01:22:04;;;;;;;7.75;5.60;;;;;;;;;;5042233;28;20031;-64
2023/03/22 01:24:29;;;;;;;12.63;6.10;;;;;;;;;;5045837;28;20041;-64
2023/03/22 01:26:54;;;;;;;8.52;6.07;;;;;;;;;;5036574;28;20158;-64
2023/03/22 01:29:20;;;;;;;9.02;5.43;;;;;;;;;;5035320;28;20071;-64
2023/03/22 01:31:45;;;;;;;6.07;5.07;;;;;;;;;;5036544;28;20025;-64
2023/03/22 01:34:10;;;;;;;12.85;5.80;;;;;;;;;;5047129;28;20091;-65
2023/03/22 01:36:36;;;;;;;10.65;5.55;;;;;;;;;;5038418;28;20051;-64
2023/03/22 01:39:01;;;;;;;9.18;5.70;;;;;;;;;;5036495;28;20017;-64
2023/03/22 01:41:26;;;;;;;7.85;5.30;;;;;;;;;;5039120;28;20021;-64
2023/03/22 01:44:25;;;;;;;7.38;5.28;;;;;;;;;;5036780;28;20056;-64
2023/03/22 01:46:50;;;;;;;11.45;4.82;;;;;;;;;;5038718;28;20029;-64
2023/03/22 01:49:21;;;;;;;8.43;5.18;;;;;;;;;;5042706;28;20040;-64
2023/03/22 01:51:48;;;;;;;7.93;5.28;;;;;;;;;;5048809;28;20128;-64
2023/03/22 01:54:19;;;;;;;6.88;4.57;;;;;;;;;;5038248;28;20079;-64
2023/03/22 01:56:45;;;;;;;9.73;5.57;;;;;;;;;;5038434;28;20044;-65
2023/03/22 01:59:12;;;;;;;9.18;4.32;;;;;;;;;;5039105;28;20072;-65
2023/03/22 02:01:37;;;;;;;7.63;4.80;;;;;;;;;;5037967;28;20078;-64
2023/03/22 02:04:08;;;;;;;8.98;5.18;;;;;;;;;;5049099;28;20052;-64
2023/03/22 02:06:37;;;;;;;7.57;4.90;;;;;;;;;;5036684;28;20477;-64
2023/03/22 02:09:06;;;;;;;8.18;4.25;;;;;;;;;;5039814;28;20463;-64
2023/03/22 02:11:42;;;;;;;6.68;4.38;;;;;;;;;;5043529;28;20017;-64
2023/03/22 02:14:07;;;;;;;14.52;4.57;;;;;;;;;;5033350;28;20483;-64
2023/03/22 02:16:49;;;;;;;7.60;3.95;;;;;;;;;;5040868;28;20040;-64
2023/03/22 02:19:32;;;;;;;4.95;3.03;;;;;;;;;;5050417;28;20033;-65
2023/03/22 02:22:16;;;;;;;9.50;4.20;;;;;;;;;;5046143;28;20048;-64
2023/03/22 02:25:02;;;;;;;8.03;3.97;;;;;;;;;;5048705;28;20036;-64
2023/03/22 02:27:36;;;;;;;7.53;3.33;;;;;;;;;;5044931;28;20232;-65
2023/03/22 02:30:05;;;;;;;7.85;3.78;;;;;;;;;;5048694;28;20064;-65
2023/03/22 02:32:43;;;;;;;7.38;3.97;;;;;;;;;;5033151;28;20048;-65
2023/03/22 02:35:08;;;;;;;6.20;3.67;;;;;;;;;;5033410;28;20030;-64
2023/03/22 02:37:33;;;;;;;9.03;3.87;;;;;;;;;;5039677;28;20467;-64
2023/03/22 02:40:07;;;;;;;5.35;3.53;;;;;;;;;;5038998;28;21019;-64
2023/03/22 02:42:48;;;;;;;6.60;3.88;;;;;;;;;;5033209;28;20022;-64
2023/03/22 02:45:19;;;;;;;5.72;2.97;;;;;;;;;;5046448;28;20025;-64
2023/03/22 02:47:53;;;;;;;9.20;2.90;;;;;;;;;;5032724;28;20056;-64
2023/03/22 02:50:19;;;;;;;9.52;3.72;;;;;;;;;;5033577;28;20025;-64
2023/03/22 02:52:53;;;;;;;6.30;3.30;;;;;;;;;;5032886;28;20108;-64
2023/03/22 02:55:36;;;;;;;5.90;3.05;;;;;;;;;;5044992;28;20037;-64
2023/03/22 02:58:16;;;;;;;8.67;3.63;;;;;;;;;;5041155;28;20036;-64
2023/03/22 03:00:42;;;;;;;6.50;3.65;;;;;;;;;;5052057;28;20028;-64
2023/03/22 03:03:10;;;;;;;6.72;3.47;;;;;;;;;;5052312;28;20021;-64
2023/03/22 03:05:38;;;;;;;12.02;3.17;;;;;;;;;;5051664;28;20402;-64
2023/03/22 03:08:03;;;;;;;5.55;3.17;;;;;;;;;;5052214;28;20472;-64
2023/03/22 03:10:29;;;;;;;10.77;3.67;;;;;;;;;;5051477;28;20037;-64
2023/03/22 03:12:54;;;;;;;5.93;3.80;;;;;;;;;;5038809;28;20420;-64
2023/03/22 03:15:20;;;;;;;6.85;3.58;;;;;;;;;;5040803;28;20021;-64
2023/03/22 03:17:45;;;;;;;10.02;4.22;;;;;;;;;;5046313;28;20018;-64
2023/03/22 03:20:28;;;;;;;9.77;3.37;;;;;;;;;;5032711;28;20096;-64
2023/03/22 03:22:54;;;;;;;6.35;3.33;;;;;;;;;;5032439;28;20753;-64
2023/03/22 03:25:25;;;;;;;7.70;2.80;;;;;;;;;;5044496;28;20063;-64
2023/03/22 03:28:00;;;;;;;8.40;3.45;;;;;;;;;;5051563;28;20339;-64
2023/03/22 03:30:30;;;;;;;5.90;3.53;;;;;;;;;;5040197;28;20111;-64
2023/03/22 03:32:58;;;;;;;10.07;4.05;;;;;;;;;;5041583;28;20033;-64
2023/03/22 03:35:29;;;;;;;6.20;3.40;;;;;;;;;;5036415;28;20171;-64
2023/03/22 03:38:09;;;;;;;6.38;4.03;;;;;;;;;;5049111;28;20090;-64
2023/03/22 03:40:42;;;;;;;7.88;3.60;;;;;;;;;;5036493;28;20021;-64
2023/03/22 03:43:07;;;;;;;11.85;3.75;;;;;;;;;;5049305;28;20041;-64
2023/03/22 03:45:34;;;;;;;11.90;3.88;;;;;;;;;;5047855;28;20068;-64
2023/03/22 03:48:02;;;;;;;7.90;3.53;;;;;;;;;;5055666;28;20819;-64
2023/03/22 03:50:27;;;;;;;7.40;3.50;;;;;;;;;;5042964;28;20103;-64
2023/03/22 03:52:54;;;;;;;5.78;3.78;;;;;;;;;;5035979;28;20045;-64
2023/03/22 03:55:20;;;;;;;5.63;3.17;;;;;;;;;;5036024;28;20499;-64
2023/03/22 03:57:45;;;;;;;9.75;4.30;;;;;;;;;;5037008;28;20581;-64
2023/03/22 04:00:13;;;;;;;6.82;3.85;;;;;;;;;;5037229;28;20053;-65
2023/03/22 04:02:38;;;;;;;6.55;3.95;;;;;;;;;;5037273;28;20025;-64
2023/03/22 04:05:04;;;;;;;7.63;3.97;;;;;;;;;;5040479;28;20029;-65
2023/03/22 04:07:29;;;;;;;8.90;3.28;;;;;;;;;;5039279;28;20028;-65
2023/03/22 04:09:54;;;;;;;6.18;3.30;;;;;;;;;;5045077;28;20110;-64
2023/03/22 04:12:20;;;;;;;8.73;3.78;;;;;;;;;;5041249;28;20044;-65
2023/03/22 04:14:45;;;;;;;11.98;3.38;;;;;;;;;;5035524;28;20136;-64
2023/03/22 04:17:10;;;;;;;7.68;3.50;;;;;;;;;;5035536;28;20034;-65
2023/03/22 04:19:35;;;;;;;7.10;4.18;;;;;;;;;;5035713;28;20492;-64
2023/03/22 04:22:01;;;;;;;8.38;4.43;;;;;;;;;;5035275;28;20081;-65
2023/03/22 04:24:26;;;;;;;7.60;3.90;;;;;;;;;;5054569;28;20086;-64
2023/03/22 04:26:51;;;;;;;7.55;3.80;;;;;;;;;;5053423;28;20024;-64
2023/03/22 04:29:17;;;;;;;10.10;3.75;;;;;;;;;;5046904;28;20098;-65
2023/03/22 04:31:42;;;;;;;6.40;3.95;;;;;;;;;;5054378;28;20060;-64
2023/03/22 04:34:07;;;;;;;10.38;4.45;;;;;;;;;;5055032;28;20028;-64
2023/03/22 04:36:38;;;;;;;6.90;4.22;;;;;;;;;;5054244;28;20036;-64
2023/03/22 04:39:04;;;;;;;8.40;3.88;;;;;;;;;;5054380;28;20017;-64
2023/03/22 04:41:30;;;;;;;5.90;3.35;;;;;;;;;;5053751;28;20013;-64
2023/03/22 04:43:56;;;;;;;9.93;4.10;;;;;;;;;;5054717;28;20470;-64
2023/03/22 04:46:22;;;;;;;8.23;3.80;;;;;;;;;;5054247;28;20021;-64
2023/03/22 04:48:47;;;;;;;8.38;3.85;;;;;;;;;;5053857;28;20116;-64
2023/03/22 04:51:12;;;;;;;8.48;4.43;;;;;;;;;;5054049;28;20021;-64
2023/03/22 04:53:38;;;;;;;7.38;4.03;;;;;;;;;;5054523;28;20463;-64
2023/03/22 04:56:07;;;;;;;8.20;3.65;;;;;;;;;;5053621;28;20021;-64
2023/03/22 04:58:33;;;;;;;8.52;4.05;;;;;;;;;;5053831;28;20025;-64
2023/03/22 05:00:59;;;;;;;11.75;4.50;;;;;;;;;;5053516;28;20382;-64
2023/03/22 05:03:24;;;;;;;6.25;3.70;;;;;;;;;;5054044;28;20107;-64
2023/03/22 05:05:53;;;;;;;9.18;4.03;;;;;;;;;;5053799;28;20073;-64
2023/03/22 05:08:25;;;;;;;7.78;3.80;;;;;;;;;;5053962;28;20025;-64
2023/03/22 05:10:51;;;;;;;12.10;4.07;;;;;;;;;;5048780;28;20112;-65
2023/03/22 05:13:16;;;;;;;8.50;4.43;;;;;;;;;;5053495;28;20526;-64
2023/03/22 05:15:42;;;;;;;6.63;3.78;;;;;;;;;;5034796;28;20041;-64
2023/03/22 05:18:07;;;;;;;12.00;4.82;;;;;;;;;;5047601;28;20028;-64
2023/03/22 05:20:32;;;;;;;6.10;4.20;;;;;;;;;;5036465;28;20053;-64
2023/03/22 05:23:01;;;;;;;9.52;4.38;;;;;;;;;;5035889;28;20014;-64
2023/03/22 05:25:26;;;;;;;10.73;5.05;;;;;;;;;;5041686;28;20475;-64
2023/03/22 05:27:53;;;;;;;8.77;4.30;;;;;;;;;;5042155;28;20032;-64
2023/03/22 05:30:18;;;;;;;6.32;3.88;;;;;;;;;;5047398;28;20025;-64
2023/03/22 05:32:43;;;;;;;9.10;4.03;;;;;;;;;;5046855;28;20025;-64
2023/03/22 05:35:09;;;;;;;10.05;4.40;;;;;;;;;;5046991;28;20122;-64
2023/03/22 05:37:35;;;;;;;6.78;3.85;;;;;;;;;;5046879;28;20793;-64
2023/03/22 05:40:00;;;;;;;8.20;3.45;;;;;;;;;;5033976;28;20345;-64
2023/03/22 05:42:25;;;;;;;11.32;3.88;;;;;;;;;;5033753;28;20033;-64
2023/03/22 05:44:51;;;;;;;9.52;4.68;;;;;;;;;;5046944;28;20042;-64
2023/03/22 05:47:16;;;;;;;8.85;4.28;;;;;;;;;;5046377;28;20023;-64
2023/03/22 05:49:41;;;;;;;9.18;4.60;;;;;;;;;;5034844;28;20030;-64
2023/03/22 05:52:06;;;;;;;16.55;4.53;;;;;;;;;;5035954;28;20014;-64
2023/03/22 05:54:32;;;;;;;5.90;3.70;;;;;;;;;;5035149;28;20029;-65
2023/03/22 05:56:57;;;;;;;6.88;3.28;;;;;;;;;;5050405;28;20025;-64
2023/03/22 05:59:22;;;;;;;7.55;3.35;;;;;;;;;;5037191;28;20028;-64
2023/03/22 06:01:47;;;;;;;9.48;4.25;;;;;;;;;;5048261;28;20094;-64
2023/03/22 06:04:13;;;;;;;10.55;3.83;;;;;;;;;;5033687;28;20021;-64
2023/03/22 06:06:38;;;;;;;6.82;3.15;;;;;;;;;;5033729;28;20029;-64
2023/03/22 06:09:03;;;;;;;10.15;3.88;;;;;;;;;;5034324;28;20016;-66
2023/03/22 06:11:32;;;;;;;9.98;3.83;;;;;;;;;;5046290;28;20044;-64
2023/03/22 06:13:58;;;;;;;6.75;3.25;;;;;;;;;;5033181;28;20020;-66
2023/03/22 06:16:23;;;;;;;7.15;3.50;;;;;;;;;;5041224;28;20033;-64
2023/03/22 06:18:48;;;;;;;9.77;3.78;;;;;;;;;;5052754;28;20017;-64
2023/03/22 06:21:13;;;;;;;7.95;4.10;;;;;;;;;;5045209;28;20026;-64
2023/03/22 06:23:39;;;;;;;14.55;3.42;;;;;;;;;;5034133;28;20022;-65
2023/03/22 06:26:04;;;;;;;10.68;3.65;;;;;;;;;;5044531;28;20460;-65
2023/03/22 06:28:29;;;;;;;7.25;3.20;;;;;;;;;;5038111;28;20027;-64
2023/03/22 06:30:55;;;;;;;11.38;3.60;;;;;;;;;;5048148;28;20426;-64
2023/03/22 06:33:20;;;;;;;5.60;2.88;;;;;;;;;;5043621;28;20048;-64
2023/03/22 06:35:45;;;;;;;11.07;3.58;;;;;;;;;;5047946;28;20391;-64
2023/03/22 06:38:11;;;;;;;7.88;3.10;;;;;;;;;;5041897;28;20117;-64
2023/03/22 06:40:36;;;;;;;7.97;3.58;;;;;;;;;;5046858;28;20455;-64
2023/03/22 06:43:02;;;;;;;6.25;2.72;;;;;;;;;;5042117;28;20090;-63
2023/03/22 06:45:32;;;;;;;7.05;3.25;;;;;;;;;;5047121;28;20074;-63
2023/03/22 06:47:57;;;;;;;6.93;3.00;;;;;;;;;;5046563;28;20028;-64
2023/03/22 06:50:22;;;;;;;9.40;3.53;;;;;;;;;;5046446;28;20021;-64
2023/03/22 06:52:47;;;;;;;5.47;2.80;;;;;;;;;;5034390;28;20392;-65
2023/03/22 06:55:13;;;;;;;7.63;3.38;;;;;;;;;;5033696;28;20121;-64
2023/03/22 06:57:38;;;;;;;9.93;2.85;;;;;;;;;;5033979;28;20042;-64
2023/03/22 07:00:04;;;;;;;9.35;3.10;;;;;;;;;;5046115;28;20060;-64
2023/03/22 07:02:29;;;;;;;12.65;3.80;;;;;;;;;;5034612;28;20037;-64
2023/03/22 07:04:54;;;;;;;12.73;3.08;;;;;;;;;;5047239;28;20444;-64
2023/03/22 07:07:20;;;;;;;16.70;4.03;;;;;;;;;;5038556;28;20025;-64
2023/03/22 07:09:45;;;;;;;11.23;3.28;;;;;;;;;;5044255;28;20352;-64
2023/03/22 07:12:10;;;;;;;8.82;3.40;;;;;;;;;;5056221;28;20039;-64
2023/03/22 07:14:36;;;;;;;7.22;3.40;;;;;;;;;;5055102;28;20025;-64
2023/03/22 07:17:01;;;;;;;9.63;3.60;;;;;;;;;;5055735;28;20029;-64
2023/03/22 07:19:26;;;;;;;6.32;3.38;;;;;;;;;;5056096;28;20024;-64
2023/03/22 07:21:52;;;;;;;16.08;4.35;;;;;;;;;;5054549;28;20032;-63
2023/03/22 07:24:17;;;;;;;6.82;2.67;;;;;;;;;;5055362;28;20532;-64
2023/03/22 07:26:42;;;;;;;9.23;3.60;;;;;;;;;;5055351;28;20486;-64
2023/03/22 07:29:08;;;;;;;5.78;2.58;;;;;;;;;;5053627;28;20040;-64
2023/03/22 07:31:36;;;;;;;7.80;3.55;;;;;;;;;;5051505;28;20376;-64
2023/03/22 07:34:02;;;;;;;8.52;3.47;;;;;;;;;;5044851;28;20044;-64
2023/03/22 07:36:28;;;;;;;7.55;2.95;;;;;;;;;;5052700;28;20028;-64
2023/03/22 07:38:53;;;;;;;12.25;3.42;;;;;;;;;;5055530;28;20029;-64
2023/03/22 07:41:18;;;;;;;6.70;2.88;;;;;;;;;;5017507;28;20383;-64
2023/03/22 07:43:44;;;;;;;10.15;3.42;;;;;;;;;;5046632;28;20017;-64
2023/03/22 07:46:09;;;;;;;6.50;2.53;;;;;;;;;;5051958;28;20029;-64
2023/03/22 07:48:35;;;;;;;8.68;2.65;;;;;;;;;;5051975;28;20013;-64
2023/03/22 07:51:00;;;;;;;10.95;3.50;;;;;;;;;;5046361;28;20025;-64
2023/03/22 07:53:26;;;;;;;9.00;3.13;;;;;;;;;;5044700;28;20426;-64
2023/03/22 07:55:52;;;;;;;8.32;3.30;;;;;;;;;;5051364;28;20036;-64
2023/03/22 07:58:17;;;;;;;9.55;2.95;;;;;;;;;;5035573;28;20468;-65
2023/03/22 08:00:42;;;;;;;6.60;2.67;;;;;;;;;;5035738;28;20437;-64
2023/03/22 08:03:09;;;;;;;7.70;3.10;;;;;;;;;;5051070;28;20104;-63
2023/03/22 08:05:34;;;;;;;5.47;2.35;;;;;;;;;;5046527;28;20472;-64
2023/03/22 08:08:00;;;;;;;8.90;3.22;;;;;;;;;;5046332;28;20017;-64
2023/03/22 08:10:25;;;;;;;5.82;2.78;;;;;;;;;;5051616;28;20378;-64
2023/03/22 08:12:50;;;;;;;6.20;2.70;;;;;;;;;;5036410;28;20025;-64
2023/03/22 08:15:16;;;;;;;7.65;2.55;;;;;;;;;;5035620;28;20025;-64
2023/03/22 08:17:41;;;;;;;13.85;3.15;;;;;;;;;;5048326;28;20013;-63
2023/03/22 08:20:07;;;;;;;12.93;3.05;;;;;;;;;;5047582;28;20020;-64
2023/03/22 08:22:34;;;;;;;8.38;2.50;;;;;;;;;;5041832;28;20475;-64
2023/03/22 08:24:59;;;;;;;13.63;2.70;;;;;;;;;;5052572;28;20033;-63
2023/03/22 08:27:25;;;;;;;8.15;2.97;;;;;;;;;;5045098;28;20041;-64
2023/03/22 08:29:50;;;;;;;8.23;2.53;;;;;;;;;;5051543;28;20060;-64
2023/03/22 08:32:15;;;;;;;9.20;2.67;;;;;;;;;;5042642;28;20025;-64
2023/03/22 08:34:41;;;;;;;4.43;2.13;;;;;;;;;;5044436;28;20093;-64
2023/03/22 08:37:07;;;;;;;6.05;2.60;;;;;;;;;;5046698;28;20033;-64
2023/03/22 08:39:32;;;;;;;7.53;2.63;;;;;;;;;;5043886;28;20481;-64
2023/03/22 08:41:58;;;;;;;5.88;2.60;;;;;;;;;;5045695;28;20032;-64
2023/03/22 08:44:23;;;;;;;5.38;2.13;;;;;;;;;;5046083;28;20430;-64
2023/03/22 08:46:49;;;;;;;6.78;2.88;;;;;;;;;;5051681;28;20025;-64
2023/03/22 08:49:14;;;;;;;6.38;3.05;;;;;;;;;;5047134;28;20019;-64
2023/03/22 08:51:39;;;;;;;13.70;2.80;;;;;;;;;;5050397;28;20037;-64
2023/03/22 08:54:05;;;;;;;10.35;3.33;;;;;;;;;;5052184;28;20374;-65
2023/03/22 08:56:36;;;;;;;10.75;3.03;;;;;;;;;;5050173;28;20033;-64
2023/03/22 08:59:01;;;;;;;19.02;3.33;;;;;;;;;;5052159;28;20487;-64
2023/03/22 09:01:27;;;;;;;9.57;2.72;;;;;;;;;;5040247;28;20064;-64
2023/03/22 09:03:52;;;;;;;8.50;3.17;;;;;;;;;;5041947;28;20021;-64
2023/03/22 09:06:17;;;;;;;6.88;2.58;;;;;;;;;;5049360;28;20028;-64
2023/03/22 09:08:43;;;;;;;6.00;1.98;;;;;;;;;;5041522;28;20111;-64
2023/03/22 09:11:09;;;;;;;6.05;1.98;;;;;;;;;;5053122;28;20037;-65
2023/03/22 09:13:34;;;;;;;9.63;2.78;;;;;;;;;;5051838;28;20036;-64
2023/03/22 09:15:59;;;;;;;9.05;2.55;;;;;;;;;;5047482;28;20024;-63
2023/03/22 09:18:25;;;;;;;11.32;2.45;;;;;;;;;;5053705;28;20021;-65
2023/03/22 09:20:50;;;;;;;12.70;2.38;;;;;;;;;;5051099;28;21491;-64
2023/03/22 09:23:16;;;;;;;7.32;2.38;;;;;;;;;;5051665;28;20029;-64
2023/03/22 09:25:44;;;;;;;4.60;2.35;;;;;;;;;;5047726;28;20029;-64
2023/03/22 09:28:10;;;;;;;8.40;2.65;;;;;;;;;;5049290;28;20389;-63
2023/03/22 09:30:35;;;;;;;11.50;2.67;;;;;;;;;;5051848;28;20029;-64
2023/03/22 09:33:01;;;;;;;5.55;1.88;;;;;;;;;;5052310;28;20025;-64
2023/03/22 09:35:26;;;;;;;13.00;2.20;;;;;;;;;;5053512;28;20108;-64
2023/03/22 09:37:53;;;;;;;15.10;3.05;;;;;;;;;;5051464;28;20044;-64
2023/03/22 09:40:18;;;;;;;13.52;2.17;;;;;;;;;;5052158;28;20688;-64
2023/03/22 09:42:45;;;;;;;8.52;2.13;;;;;;;;;;5050876;28;20025;-63
2023/03/22 09:45:23;;;;;;;11.07;2.42;;;;;;;;;;5052491;28;20020;-64
2023/03/22 09:47:52;;;;;;;7.45;2.85;;;;;;;;;;5052366;28;20025;-64
2023/03/22 09:50:26;;;;;;;9.88;3.30;;;;;;;;;;5143628;27;20478;-64
2023/03/22 09:52:52;;;;;;;10.25;2.65;;;;;;;;;;5113844;28;20033;-64
2023/03/22 09:55:25;;;;;;;9.70;2.47;;;;;;;;;;5122533;28;20611;-63
2023/03/22 09:57:55;;;;;;;6.78;3.03;;;;;;;;;;5109856;28;20027;-64
2023/03/22 10:00:24;;;;;;;6.22;2.30;;;;;;;;;;5114023;28;20019;-64
2023/03/22 10:03:08;;;;;;;5.32;2.28;;;;;;;;;;5108835;28;20023;-64
2023/03/22 10:05:33;;;;;;;4.63;2.10;;;;;;;;;;5112007;28;20473;-64
2023/03/22 10:08:01;;;;;;;4.00;2.13;;;;;;;;;;5109132;28;20023;-63
2023/03/22 10:10:27;;;;;;;5.63;2.13;;;;;;;;;;5118382;28;20265;-64
2023/03/22 10:12:59;;;;;;;7.75;2.50;;;;;;;;;;5108905;28;20023;-64
2023/03/22 10:15:29;;;;;;;8.27;1.80;;;;;;;;;;5120529;28;20028;-64
2023/03/22 10:17:56;;;;;;;5.93;1.90;;;;;;;;;;5121557;28;20060;-64
2023/03/22 10:20:31;;;;;;;8.02;2.55;;;;;;;;;;5111877;28;20051;-64
2023/03/22 10:22:58;;;;;;;7.10;2.55;;;;;;;;;;5108722;28;20474;-64
2023/03/22 10:25:29;;;;;;;4.57;1.90;;;;;;;;;;5114062;28;20027;-64
2023/03/22 10:27:55;;;;;;;10.10;2.70;;;;;;;;;;5108901;28;20141;-64
2023/03/22 10:30:22;;;;;;;6.65;2.28;;;;;;;;;;5112548;28;20114;-64
2023/03/22 10:32:54;;;;;;;4.68;2.35;;;;;;;;;;5108191;28;20046;-64
2023/03/22 10:35:20;;;;;;;14.25;2.90;;;;;;;;;;5111688;28;20047;-65
2023/03/22 10:37:46;;;;;;;7.85;2.55;;;;;;;;;;5115255;28;20055;-64
2023/03/22 10:40:19;;;;;;;5.55;2.03;;;;;;;;;;5112960;28;20073;-64
2023/03/22 10:42:49;;;;;;;5.10;1.92;;;;;;;;;;5113206;28;20063;-64
2023/03/22 10:45:14;;;;;;;7.68;2.20;;;;;;;;;;5110403;28;20043;-64
2023/03/22 10:47:46;;;;;;;5.13;1.92;;;;;;;;;;5111734;28;20423;-63
2023/03/22 10:50:19;;;;;;;5.90;2.40;;;;;;;;;;5117095;28;20019;-63
2023/03/22 10:52:47;;;;;;;5.77;2.23;;;;;;;;;;5110132;28;20507;-64
2023/03/22 10:55:14;;;;;;;5.50;1.70;;;;;;;;;;5109329;28;20040;-64
2023/03/22 10:57:41;;;;;;;10.68;2.75;;;;;;;;;;5109784;28;20098;-64
2023/03/22 11:00:11;;;;;;;8.98;2.05;;;;;;;;;;5103965;28;20076;-64
2023/03/22 11:02:43;;;;;;;5.78;2.42;;;;;;;;;;5097146;28;20093;-64
2023/03/22 11:05:17;;;;;;;8.95;2.35;;;;;;;;;;5110002;28;20027;-64
2023/03/22 11:07:43;;;;;;;5.07;2.08;;;;;;;;;;5097112;28;20073;-63
2023/03/22 11:10:08;;;;;;;9.27;2.50;;;;;;;;;;5094124;28;20032;-63
2023/03/22 11:12:38;;;;;;;8.82;2.40;;;;;;;;;;5097805;28;20034;-63
2023/03/22 11:15:04;;;;;;;7.18;1.92;;;;;;;;;;5094128;28;20028;-63
2023/03/22 11:17:30;;;;;;;14.07;2.35;;;;;;;;;;5095380;28;20499;-64
2023/03/22 11:20:00;;;;;;;5.18;1.75;;;;;;;;;;5092760;28;20028;-64
2023/03/22 11:22:32;;;;;;;4.85;1.67;;;;;;;;;;5095065;28;20028;-63
2023/03/22 11:24:58;;;;;;;3.33;1.48;;;;;;;;;;5097338;28;20024;-63
2023/03/22 11:27:25;;;;;;;4.90;1.50;;;;;;;;;;5100702;28;20050;-63
2023/03/22 11:29:51;;;;;;;7.72;2.42;;;;;;;;;;5088440;28;20039;-63
2023/03/22 11:32:20;;;;;;;6.20;1.88;;;;;;;;;;5100997;28;20028;-63
2023/03/22 11:34:46;;;;;;;14.68;2.05;;;;;;;;;;5093642;28;20008;-63
2023/03/22 11:37:15;;;;;;;7.35;2.08;;;;;;;;;;5099037;28;20027;-63
2023/03/22 11:39:45;;;;;;;5.93;2.03;;;;;;;;;;5093168;28;20035;-63
2023/03/22 11:42:14;;;;;;;5.97;1.98;;;;;;;;;;5096659;28;20046;-63
2023/03/22 11:44:39;;;;;;;3.88;1.83;;;;;;;;;;5097713;28;20469;-63
2023/03/22 11:47:06;;;;;;;5.05;1.95;;;;;;;;;;5095297;28;20024;-64
2023/03/22 11:49:45;;;;;;;8.95;2.10;;;;;;;;;;5097240;28;20039;-64
2023/03/22 11:52:20;;;;;;;9.20;2.60;;;;;;;;;;5101895;28;20028;-64
2023/03/22 11:54:45;;;;;;;;;;;;;;;;;;5093845;28;20024;-63
2023/03/22 11:57:13;;;;;;;4.97;1.98;;;;;;;;;;5097774;28;19912;-64
2023/03/22 11:59:44;;;;;;;8.80;2.25;;;;;;;;;;5093282;28;20389;-63
2023/03/22 12:02:12;;;;;;;6.18;1.85;;;;;;;;;;5094935;28;20103;-64
2023/03/22 12:04:38;;;;;;;4.72;1.60;;;;;;;;;;5092766;28;20379;-63
2023/03/22 12:07:10;;;;;;;5.18;2.08;;;;;;;;;;5093202;28;20027;-65
2023/03/22 12:09:43;;;;;;;10.23;2.13;;;;;;;;;;5096172;28;20378;-64
2023/03/22 12:12:13;;;;;;;5.85;1.98;;;;;;;;;;5092253;28;20103;-63
2023/03/22 12:14:51;;;;;;;4.63;1.80;;;;;;;;;;5106590;28;20051;-64
2023/03/22 12:17:19;;;;;;;5.60;2.03;;;;;;;;;;5105289;28;20031;-63
2023/03/22 12:19:58;;;;;;;4.18;1.95;;;;;;;;;;5097981;28;20024;-64
2023/03/22 12:22:52;;;;;;;6.68;2.15;;;;;;;;;;5103506;28;20024;-64
2023/03/22 12:25:23;;;;;;;6.95;2.50;;;;;;;;;;5083158;28;20032;-64
2023/03/22 12:27:53;;;;;;;4.32;2.13;;;;;;;;;;5101882;28;20027;-64
2023/03/22 12:30:36;;;;;;;5.35;1.80;;;;;;;;;;5092372;28;20028;-63
2023/03/22 12:33:17;;;;;;;6.82;2.13;;;;;;;;;;5096125;28;20035;-63
2023/03/22 12:35:43;;;;;;;9.07;1.85;;;;;;;;;;5092263;28;20032;-63
2023/03/22 12:38:14;;;;;;;9.32;1.88;;;;;;;;;;5092407;28;20024;-64
2023/03/22 12:40:40;;;;;;;4.60;1.77;;;;;;;;;;5093049;28;20107;-63
2023/03/22 12:43:43;;;;;;;6.88;1.92;;;;;;;;;;5093278;28;20102;-64
2023/03/22 12:46:13;;;;;;;4.60;1.65;;;;;;;;;;5010146;28;20037;-64
2023/03/22 12:48:41;;;;;;;6.45;2.42;;;;;;;;;;5010333;28;20041;-64
2023/03/22 12:51:08;;;;;;;7.25;2.00;;;;;;;;;;5051194;28;20035;-63
2023/03/22 12:53:41;;;;;;;7.32;2.15;;;;;;;;;;5096339;28;20015;-64
2023/03/22 12:56:07;;;;;;;6.45;2.42;;;;;;;;;;5100319;28;20531;-64
2023/03/22 12:58:32;;;;;;;5.47;2.25;;;;;;;;;;5093292;28;20020;-64
2023/03/22 13:01:05;;;;;;;8.95;2.10;;;;;;;;;;5098765;28;20020;-64
2023/03/22 13:03:38;;;;;;;6.07;2.53;;;;;;;;;;5092065;28;20035;-63
2023/03/22 13:06:24;;;;;;;9.65;2.42;;;;;;;;;;5099228;28;20092;-64
2023/03/22 13:09:05;;;;;;;5.95;1.80;;;;;;;;;;5091634;28;20067;-64
2023/03/22 13:11:30;;;;;;;5.45;1.90;;;;;;;;;;5099553;28;20024;-64
2023/03/22 13:13:55;;;;;;;7.13;2.05;;;;;;;;;;5101938;28;20481;-64
2023/03/22 13:16:21;;;;;;;4.70;1.98;;;;;;;;;;5091629;28;20056;-64
2023/03/22 13:18:46;;;;;;;4.88;2.00;;;;;;;;;;5089013;28;20118;-63
2023/03/22 13:21:22;;;;;;;12.53;2.60;;;;;;;;;;5094659;28;20110;-66
2023/03/22 13:23:59;;;;;;;10.93;2.25;;;;;;;;;;5093216;28;20328;-64
2023/03/22 13:26:57;;;;;;;7.32;2.38;;;;;;;;;;5093026;28;20085;-64
2023/03/22 13:29:24;;;;;;;3.60;1.50;;;;;;;;;;5075781;28;20040;-64
2023/03/22 13:31:54;;;;;;;7.07;1.73;;;;;;;;;;5102773;28;20111;-64
2023/03/22 13:34:21;;;;;;;5.60;1.50;;;;;;;;;;5091591;28;20028;-64
2023/03/22 13:36:54;;;;;;;7.28;1.67;;;;;;;;;;5106061;28;20059;-63
2023/03/22 13:39:22;;;;;;;17.02;1.70;;;;;;;;;;5093900;28;20028;-64
2023/03/22 13:41:48;;;;;;;6.93;2.15;;;;;;;;;;5097460;28;20046;-63
2023/03/22 13:44:34;;;;;;;4.80;2.03;;;;;;;;;;5091431;28;20503;-64
2023/03/22 13:47:00;;;;;;;4.78;1.58;;;;;;;;;;5097712;28;20034;-63
2023/03/22 13:49:46;;;;;;;4.28;1.33;;;;;;;;;;5091175;28;20031;-63
2023/03/22 13:52:22;;;;;;;7.25;1.55;;;;;;;;;;5095004;28;20034;-64
2023/03/22 13:54:48;;;;;;;3.92;1.60;;;;;;;;;;5103106;28;20039;-63
2023/03/22 13:57:36;;;;;;;6.57;1.90;;;;;;;;;;5097088;28;20052;-64
2023/03/22 14:00:21;;;;;;;8.27;1.80;;;;;;;;;;5093562;28;20821;-64
2023/03/22 14:02:48;;;;;;;5.10;1.70;;;;;;;;;;5091223;28;20036;-64
2023/03/22 14:05:15;;;;;;;3.58;1.50;;;;;;;;;;5092246;28;20039;-64
2023/03/22 14:07:52;;;;;;;3.13;1.27;;;;;;;;;;5099916;28;20035;-65
2023/03/22 14:10:31;;;;;;;4.78;1.58;;;;;;;;;;5076516;28;20043;-64
2023/03/22 14:13:16;;;;;;;12.63;1.83;;;;;;;;;;5074214;28;20028;-63
2023/03/22 14:15:41;;;;;;;;;;;;;;;;;;5096636;28;20064;-64
2023/03/22 14:18:12;;;;;;;4.47;1.33;;;;;;;;;;5090264;28;19916;-64
2023/03/22 14:20:38;;;;;;;5.97;1.92;;;;;;;;;;5097141;28;20358;-64
2023/03/22 14:23:11;;;;;;;8.02;1.80;;;;;;;;;;5097457;28;20051;-64
2023/03/22 14:25:37;;;;;;;4.60;1.80;;;;;;;;;;5094332;28;20466;-64
2023/03/22 14:28:03;;;;;;;9.40;1.58;;;;;;;;;;5092132;28;20023;-64
2023/03/22 14:30:34;;;;;;;6.65;1.85;;;;;;;;;;5103819;28;20027;-64
2023/03/22 14:33:19;;;;;;;5.63;1.80;;;;;;;;;;5095531;28;20028;-65
2023/03/22 14:35:52;;;;;;;7.15;1.90;;;;;;;;;;5100186;28;20082;-65
2023/03/22 14:38:19;;;;;;;6.30;1.48;;;;;;;;;;5098424;28;20035;-64
2023/03/22 14:40:44;;;;;;;8.07;1.92;;;;;;;;;;5095759;28;20495;-64
2023/03/22 14:43:11;;;;;;;4.85;1.92;;;;;;;;;;5093526;28;20103;-64
2023/03/22 14:45:36;;;;;;;6.65;1.95;;;;;;;;;;5094428;28;20032;-64
2023/03/22 14:48:02;;;;;;;6.03;1.60;;;;;;;;;;5095734;28;20381;-64